sensor_id;sensor_type;location;lat;lon;timestamp;P1;durP1;ratioP1;P2;durP2;ratioP2
49131;SDS011;35149;51.196;6.204;2023-11-21T00:01:21;13.55;;;9.48;;
49131;SDS011;35149;51.196;6.204;2023-11-21T00:03:50;15.43;;;10.23;;
49131;SDS011;35149;51.196;6.204;2023-11-21T00:06:16;14.77;;;10.63;;
49131;SDS011;35149;51.196;6.204;2023-11-21T00:08:44;13.57;;;10.25;;
49131;SDS011;35149;51.196;6.204;2023-11-21T00:11:11;15.73;;;9.32;;
49131;SDS011;35149;51.196;6.204;2023-11-21T00:13:38;16.55;;;10.95;;
49131;SDS011;35149;51.196;6.204;2023-11-21T00:16:05;17.48;;;10.50;;
49131;SDS011;35149;51.196;6.204;2023-11-21T00:18:33;14.07;;;10.88;;
49131;SDS011;35149;51.196;6.204;2023-11-21T00:21:00;17.88;;;11.13;;
49131;SDS011;35149;51.196;6.204;2023-11-21T00:23:27;19.05;;;12.63;;
49131;SDS011;35149;51.196;6.204;2023-11-21T00:25:53;18.55;;;11.63;;
49131;SDS011;35149;51.196;6.204;2023-11-21T00:28:20;19.83;;;12.52;;
49131;SDS011;35149;51.196;6.204;2023-11-21T00:30:47;21.85;;;12.10;;
49131;SDS011;35149;51.196;6.204;2023-11-21T00:33:13;20.00;;;13.23;;
49131;SDS011;35149;51.196;6.204;2023-11-21T00:35:43;21.52;;;13.13;;
49131;SDS011;35149;51.196;6.204;2023-11-21T00:38:09;25.67;;;13.18;;
49131;SDS011;35149;51.196;6.204;2023-11-21T00:40:36;26.88;;;13.82;;
49131;SDS011;35149;51.196;6.204;2023-11-21T00:43:04;29.10;;;12.57;;
49131;SDS011;35149;51.196;6.204;2023-11-21T00:45:32;19.15;;;12.32;;
49131;SDS011;35149;51.196;6.204;2023-11-21T00:48:02;30.20;;;12.88;;
49131;SDS011;35149;51.196;6.204;2023-11-21T00:50:31;19.95;;;13.73;;
49131;SDS011;35149;51.196;6.204;2023-11-21T00:52:59;20.55;;;13.70;;
49131;SDS011;35149;51.196;6.204;2023-11-21T00:55:25;20.17;;;13.40;;
49131;SDS011;35149;51.196;6.204;2023-11-21T00:57:56;21.63;;;13.55;;
49131;SDS011;35149;51.196;6.204;2023-11-21T01:00:23;19.55;;;13.52;;
49131;SDS011;35149;51.196;6.204;2023-11-21T01:02:49;18.75;;;13.40;;
49131;SDS011;35149;51.196;6.204;2023-11-21T01:05:17;18.33;;;13.02;;
49131;SDS011;35149;51.196;6.204;2023-11-21T01:07:45;18.05;;;13.45;;
49131;SDS011;35149;51.196;6.204;2023-11-21T01:10:11;17.50;;;12.50;;
49131;SDS011;35149;51.196;6.204;2023-11-21T01:12:41;20.45;;;14.82;;
49131;SDS011;35149;51.196;6.204;2023-11-21T01:15:08;17.05;;;12.95;;
49131;SDS011;35149;51.196;6.204;2023-11-21T01:17:35;18.08;;;13.75;;
49131;SDS011;35149;51.196;6.204;2023-11-21T01:20:04;20.73;;;13.52;;
49131;SDS011;35149;51.196;6.204;2023-11-21T01:22:37;17.85;;;13.18;;
49131;SDS011;35149;51.196;6.204;2023-11-21T01:25:05;19.10;;;12.55;;
49131;SDS011;35149;51.196;6.204;2023-11-21T01:27:33;17.02;;;12.27;;
49131;SDS011;35149;51.196;6.204;2023-11-21T01:30:01;17.58;;;12.70;;
49131;SDS011;35149;51.196;6.204;2023-11-21T01:32:29;17.92;;;12.80;;
49131;SDS011;35149;51.196;6.204;2023-11-21T01:34:55;17.50;;;12.25;;
49131;SDS011;35149;51.196;6.204;2023-11-21T01:37:22;15.82;;;11.73;;
49131;SDS011;35149;51.196;6.204;2023-11-21T01:39:49;16.70;;;12.43;;
49131;SDS011;35149;51.196;6.204;2023-11-21T01:42:15;15.50;;;10.82;;
49131;SDS011;35149;51.196;6.204;2023-11-21T01:44:46;14.27;;;11.13;;
49131;SDS011;35149;51.196;6.204;2023-11-21T01:47:13;15.60;;;11.40;;
49131;SDS011;35149;51.196;6.204;2023-11-21T01:49:43;14.02;;;12.13;;
49131;SDS011;35149;51.196;6.204;2023-11-21T01:52:11;17.02;;;11.57;;
49131;SDS011;35149;51.196;6.204;2023-11-21T01:54:38;14.55;;;11.60;;
49131;SDS011;35149;51.196;6.204;2023-11-21T01:57:05;16.60;;;12.10;;
49131;SDS011;35149;51.196;6.204;2023-11-21T01:59:36;14.70;;;11.52;;
49131;SDS011;35149;51.196;6.204;2023-11-21T02:02:04;16.42;;;11.38;;
49131;SDS011;35149;51.196;6.204;2023-11-21T02:04:36;13.38;;;10.27;;
49131;SDS011;35149;51.196;6.204;2023-11-21T02:07:06;13.80;;;11.00;;
49131;SDS011;35149;51.196;6.204;2023-11-21T02:09:34;12.98;;;10.57;;
49131;SDS011;35149;51.196;6.204;2023-11-21T02:12:03;13.45;;;10.38;;
49131;SDS011;35149;51.196;6.204;2023-11-21T02:14:30;14.02;;;11.15;;
49131;SDS011;35149;51.196;6.204;2023-11-21T02:16:57;15.18;;;10.98;;
49131;SDS011;35149;51.196;6.204;2023-11-21T02:19:24;12.60;;;10.10;;
49131;SDS011;35149;51.196;6.204;2023-11-21T02:21:57;13.95;;;10.27;;
49131;SDS011;35149;51.196;6.204;2023-11-21T02:24:30;13.88;;;10.30;;
49131;SDS011;35149;51.196;6.204;2023-11-21T02:26:57;12.82;;;10.63;;
49131;SDS011;35149;51.196;6.204;2023-11-21T02:29:24;12.63;;;9.95;;
49131;SDS011;35149;51.196;6.204;2023-11-21T02:31:54;13.95;;;10.23;;
49131;SDS011;35149;51.196;6.204;2023-11-21T02:34:22;13.80;;;11.05;;
49131;SDS011;35149;51.196;6.204;2023-11-21T02:36:51;12.43;;;10.20;;
49131;SDS011;35149;51.196;6.204;2023-11-21T02:39:17;15.45;;;11.43;;
49131;SDS011;35149;51.196;6.204;2023-11-21T02:41:48;15.20;;;11.38;;
49131;SDS011;35149;51.196;6.204;2023-11-21T02:44:15;15.77;;;12.15;;
49131;SDS011;35149;51.196;6.204;2023-11-21T02:46:41;17.50;;;11.93;;
49131;SDS011;35149;51.196;6.204;2023-11-21T02:49:09;17.65;;;12.45;;
49131;SDS011;35149;51.196;6.204;2023-11-21T02:51:36;16.15;;;11.80;;
49131;SDS011;35149;51.196;6.204;2023-11-21T02:54:05;17.38;;;12.80;;
49131;SDS011;35149;51.196;6.204;2023-11-21T02:56:34;17.98;;;12.65;;
49131;SDS011;35149;51.196;6.204;2023-11-21T02:59:02;19.85;;;12.93;;
49131;SDS011;35149;51.196;6.204;2023-11-21T03:01:31;19.17;;;13.48;;
49131;SDS011;35149;51.196;6.204;2023-11-21T03:03:58;19.23;;;13.60;;
49131;SDS011;35149;51.196;6.204;2023-11-21T03:06:24;19.58;;;13.40;;
49131;SDS011;35149;51.196;6.204;2023-11-21T03:08:51;19.65;;;14.23;;
49131;SDS011;35149;51.196;6.204;2023-11-21T03:11:18;17.40;;;14.27;;
49131;SDS011;35149;51.196;6.204;2023-11-21T03:13:45;27.00;;;15.13;;
49131;SDS011;35149;51.196;6.204;2023-11-21T03:16:12;22.92;;;15.73;;
49131;SDS011;35149;51.196;6.204;2023-11-21T03:18:39;30.88;;;18.83;;
49131;SDS011;35149;51.196;6.204;2023-11-21T03:21:06;35.55;;;18.38;;
49131;SDS011;35149;51.196;6.204;2023-11-21T03:23:36;38.35;;;20.33;;
49131;SDS011;35149;51.196;6.204;2023-11-21T03:26:04;35.40;;;19.85;;
49131;SDS011;35149;51.196;6.204;2023-11-21T03:28:34;51.75;;;22.65;;
49131;SDS011;35149;51.196;6.204;2023-11-21T03:31:05;61.70;;;24.52;;
49131;SDS011;35149;51.196;6.204;2023-11-21T03:33:32;55.25;;;23.52;;
49131;SDS011;35149;51.196;6.204;2023-11-21T03:35:59;55.92;;;23.52;;
49131;SDS011;35149;51.196;6.204;2023-11-21T03:38:29;55.75;;;23.70;;
49131;SDS011;35149;51.196;6.204;2023-11-21T03:40:56;49.45;;;20.77;;
49131;SDS011;35149;51.196;6.204;2023-11-21T03:43:23;41.05;;;20.33;;
49131;SDS011;35149;51.196;6.204;2023-11-21T03:45:50;45.05;;;21.85;;
49131;SDS011;35149;51.196;6.204;2023-11-21T03:48:17;69.88;;;27.15;;
49131;SDS011;35149;51.196;6.204;2023-11-21T03:50:44;55.90;;;25.42;;
49131;SDS011;35149;51.196;6.204;2023-11-21T03:53:10;66.28;;;28.80;;
49131;SDS011;35149;51.196;6.204;2023-11-21T03:55:37;61.70;;;28.52;;
49131;SDS011;35149;51.196;6.204;2023-11-21T03:58:04;64.07;;;27.30;;
49131;SDS011;35149;51.196;6.204;2023-11-21T04:00:31;63.30;;;27.23;;
49131;SDS011;35149;51.196;6.204;2023-11-21T04:02:57;59.08;;;26.17;;
49131;SDS011;35149;51.196;6.204;2023-11-21T04:05:27;54.78;;;24.80;;
49131;SDS011;35149;51.196;6.204;2023-11-21T04:07:55;50.97;;;24.23;;
49131;SDS011;35149;51.196;6.204;2023-11-21T04:10:22;55.67;;;25.17;;
49131;SDS011;35149;51.196;6.204;2023-11-21T04:12:48;50.45;;;25.73;;
49131;SDS011;35149;51.196;6.204;2023-11-21T04:15:15;50.40;;;24.35;;
49131;SDS011;35149;51.196;6.204;2023-11-21T04:17:42;45.55;;;23.33;;
49131;SDS011;35149;51.196;6.204;2023-11-21T04:20:11;38.63;;;20.50;;
49131;SDS011;35149;51.196;6.204;2023-11-21T04:22:38;36.60;;;20.83;;
49131;SDS011;35149;51.196;6.204;2023-11-21T04:25:10;37.42;;;19.70;;
49131;SDS011;35149;51.196;6.204;2023-11-21T04:27:41;31.73;;;19.10;;
49131;SDS011;35149;51.196;6.204;2023-11-21T04:30:10;32.90;;;17.85;;
49131;SDS011;35149;51.196;6.204;2023-11-21T04:32:39;31.10;;;18.63;;
49131;SDS011;35149;51.196;6.204;2023-11-21T04:35:08;27.73;;;17.25;;
49131;SDS011;35149;51.196;6.204;2023-11-21T04:37:35;26.48;;;17.02;;
49131;SDS011;35149;51.196;6.204;2023-11-21T04:40:02;27.27;;;17.42;;
49131;SDS011;35149;51.196;6.204;2023-11-21T04:42:35;22.58;;;16.35;;
49131;SDS011;35149;51.196;6.204;2023-11-21T04:45:05;25.15;;;17.15;;
49131;SDS011;35149;51.196;6.204;2023-11-21T04:47:37;23.05;;;15.65;;
49131;SDS011;35149;51.196;6.204;2023-11-21T04:50:04;22.35;;;15.32;;
49131;SDS011;35149;51.196;6.204;2023-11-21T04:52:32;23.83;;;15.93;;
49131;SDS011;35149;51.196;6.204;2023-11-21T04:54:59;24.63;;;16.30;;
49131;SDS011;35149;51.196;6.204;2023-11-21T04:57:27;23.77;;;15.52;;
49131;SDS011;35149;51.196;6.204;2023-11-21T04:59:57;24.60;;;16.35;;
49131;SDS011;35149;51.196;6.204;2023-11-21T05:02:24;25.42;;;15.88;;
49131;SDS011;35149;51.196;6.204;2023-11-21T05:05:01;23.20;;;16.30;;
49131;SDS011;35149;51.196;6.204;2023-11-21T05:07:29;27.10;;;16.92;;
49131;SDS011;35149;51.196;6.204;2023-11-21T05:09:58;24.60;;;16.52;;
49131;SDS011;35149;51.196;6.204;2023-11-21T05:12:24;25.80;;;16.92;;
49131;SDS011;35149;51.196;6.204;2023-11-21T05:14:54;25.20;;;17.23;;
49131;SDS011;35149;51.196;6.204;2023-11-21T05:17:23;25.45;;;17.10;;
49131;SDS011;35149;51.196;6.204;2023-11-21T05:19:50;26.98;;;17.10;;
49131;SDS011;35149;51.196;6.204;2023-11-21T05:22:17;25.55;;;16.60;;
49131;SDS011;35149;51.196;6.204;2023-11-21T05:24:43;28.50;;;17.70;;
49131;SDS011;35149;51.196;6.204;2023-11-21T05:27:10;24.88;;;17.40;;
49131;SDS011;35149;51.196;6.204;2023-11-21T05:29:37;28.77;;;18.83;;
49131;SDS011;35149;51.196;6.204;2023-11-21T05:32:04;31.88;;;18.63;;
49131;SDS011;35149;51.196;6.204;2023-11-21T05:34:31;32.42;;;19.23;;
49131;SDS011;35149;51.196;6.204;2023-11-21T05:36:58;31.63;;;19.45;;
49131;SDS011;35149;51.196;6.204;2023-11-21T05:39:25;35.80;;;20.17;;
49131;SDS011;35149;51.196;6.204;2023-11-21T05:41:52;36.95;;;21.02;;
49131;SDS011;35149;51.196;6.204;2023-11-21T05:44:18;34.30;;;22.08;;
49131;SDS011;35149;51.196;6.204;2023-11-21T05:46:45;39.97;;;22.55;;
49131;SDS011;35149;51.196;6.204;2023-11-21T05:49:12;39.50;;;23.70;;
49131;SDS011;35149;51.196;6.204;2023-11-21T05:51:38;43.00;;;23.08;;
49131;SDS011;35149;51.196;6.204;2023-11-21T05:54:05;52.65;;;24.50;;
49131;SDS011;35149;51.196;6.204;2023-11-21T05:56:33;45.50;;;23.08;;
49131;SDS011;35149;51.196;6.204;2023-11-21T05:59:00;43.30;;;22.77;;
49131;SDS011;35149;51.196;6.204;2023-11-21T06:01:28;58.65;;;23.60;;
49131;SDS011;35149;51.196;6.204;2023-11-21T06:03:54;60.33;;;23.52;;
49131;SDS011;35149;51.196;6.204;2023-11-21T06:06:21;58.67;;;24.20;;
49131;SDS011;35149;51.196;6.204;2023-11-21T06:08:51;56.78;;;22.20;;
49131;SDS011;35149;51.196;6.204;2023-11-21T06:11:18;48.45;;;22.70;;
49131;SDS011;35149;51.196;6.204;2023-11-21T06:13:45;43.88;;;22.90;;
49131;SDS011;35149;51.196;6.204;2023-11-21T06:16:11;38.97;;;21.52;;
49131;SDS011;35149;51.196;6.204;2023-11-21T06:18:42;49.83;;;23.13;;
49131;SDS011;35149;51.196;6.204;2023-11-21T06:21:10;44.03;;;19.17;;
49131;SDS011;35149;51.196;6.204;2023-11-21T06:23:37;54.50;;;20.83;;
49131;SDS011;35149;51.196;6.204;2023-11-21T06:26:04;33.67;;;20.67;;
49131;SDS011;35149;51.196;6.204;2023-11-21T06:28:32;82.10;;;22.73;;
49131;SDS011;35149;51.196;6.204;2023-11-21T06:30:59;54.08;;;20.45;;
49131;SDS011;35149;51.196;6.204;2023-11-21T06:33:31;53.28;;;21.70;;
49131;SDS011;35149;51.196;6.204;2023-11-21T06:35:58;42.80;;;23.70;;
49131;SDS011;35149;51.196;6.204;2023-11-21T06:38:25;55.47;;;24.90;;
49131;SDS011;35149;51.196;6.204;2023-11-21T06:40:54;46.05;;;25.08;;
49131;SDS011;35149;51.196;6.204;2023-11-21T06:43:21;62.72;;;28.95;;
49131;SDS011;35149;51.196;6.204;2023-11-21T06:45:48;54.70;;;29.60;;
49131;SDS011;35149;51.196;6.204;2023-11-21T06:48:15;72.70;;;30.05;;
49131;SDS011;35149;51.196;6.204;2023-11-21T06:50:41;73.28;;;33.10;;
49131;SDS011;35149;51.196;6.204;2023-11-21T06:53:08;67.72;;;33.97;;
49131;SDS011;35149;51.196;6.204;2023-11-21T06:55:35;94.60;;;37.88;;
49131;SDS011;35149;51.196;6.204;2023-11-21T06:58:02;90.32;;;37.15;;
49131;SDS011;35149;51.196;6.204;2023-11-21T07:00:29;75.43;;;38.28;;
49131;SDS011;35149;51.196;6.204;2023-11-21T07:02:56;87.85;;;34.97;;
49131;SDS011;35149;51.196;6.204;2023-11-21T07:05:22;96.13;;;35.97;;
49131;SDS011;35149;51.196;6.204;2023-11-21T07:07:49;79.28;;;33.60;;
49131;SDS011;35149;51.196;6.204;2023-11-21T07:10:16;85.05;;;32.70;;
49131;SDS011;35149;51.196;6.204;2023-11-21T07:12:43;97.25;;;32.10;;
49131;SDS011;35149;51.196;6.204;2023-11-21T07:15:10;64.18;;;28.77;;
49131;SDS011;35149;51.196;6.204;2023-11-21T07:17:37;64.43;;;29.30;;
49131;SDS011;35149;51.196;6.204;2023-11-21T07:20:07;78.47;;;29.50;;
49131;SDS011;35149;51.196;6.204;2023-11-21T07:22:34;83.65;;;28.80;;
49131;SDS011;35149;51.196;6.204;2023-11-21T07:25:01;89.32;;;30.05;;
49131;SDS011;35149;51.196;6.204;2023-11-21T07:27:28;75.38;;;29.85;;
49131;SDS011;35149;51.196;6.204;2023-11-21T07:29:55;66.28;;;29.95;;
49131;SDS011;35149;51.196;6.204;2023-11-21T07:32:21;65.75;;;27.70;;
49131;SDS011;35149;51.196;6.204;2023-11-21T07:34:48;69.85;;;27.95;;
49131;SDS011;35149;51.196;6.204;2023-11-21T07:37:14;63.08;;;25.65;;
49131;SDS011;35149;51.196;6.204;2023-11-21T07:39:41;63.00;;;26.30;;
49131;SDS011;35149;51.196;6.204;2023-11-21T07:42:08;80.50;;;26.17;;
49131;SDS011;35149;51.196;6.204;2023-11-21T07:44:36;58.88;;;25.45;;
49131;SDS011;35149;51.196;6.204;2023-11-21T07:47:03;63.33;;;26.48;;
49131;SDS011;35149;51.196;6.204;2023-11-21T07:49:30;64.38;;;29.42;;
49131;SDS011;35149;51.196;6.204;2023-11-21T07:51:57;54.90;;;25.73;;
49131;SDS011;35149;51.196;6.204;2023-11-21T07:54:24;57.20;;;25.70;;
49131;SDS011;35149;51.196;6.204;2023-11-21T07:56:50;54.42;;;26.17;;
49131;SDS011;35149;51.196;6.204;2023-11-21T07:59:20;54.65;;;26.35;;
49131;SDS011;35149;51.196;6.204;2023-11-21T08:01:47;57.58;;;26.52;;
49131;SDS011;35149;51.196;6.204;2023-11-21T08:04:13;53.97;;;26.45;;
49131;SDS011;35149;51.196;6.204;2023-11-21T08:06:40;53.85;;;26.45;;
49131;SDS011;35149;51.196;6.204;2023-11-21T08:09:07;57.92;;;27.75;;
49131;SDS011;35149;51.196;6.204;2023-11-21T08:11:34;52.38;;;25.73;;
49131;SDS011;35149;51.196;6.204;2023-11-21T08:14:01;47.67;;;24.60;;
49131;SDS011;35149;51.196;6.204;2023-11-21T08:16:28;49.08;;;25.35;;
49131;SDS011;35149;51.196;6.204;2023-11-21T08:18:55;50.55;;;24.52;;
49131;SDS011;35149;51.196;6.204;2023-11-21T08:21:21;51.40;;;25.15;;
49131;SDS011;35149;51.196;6.204;2023-11-21T08:23:51;53.40;;;24.42;;
49131;SDS011;35149;51.196;6.204;2023-11-21T08:26:20;62.40;;;24.98;;
49131;SDS011;35149;51.196;6.204;2023-11-21T08:28:48;56.10;;;26.38;;
49131;SDS011;35149;51.196;6.204;2023-11-21T08:31:14;55.70;;;26.70;;
49131;SDS011;35149;51.196;6.204;2023-11-21T08:33:42;49.33;;;23.40;;
49131;SDS011;35149;51.196;6.204;2023-11-21T08:36:09;48.53;;;22.50;;
49131;SDS011;35149;51.196;6.204;2023-11-21T08:38:38;42.60;;;21.77;;
49131;SDS011;35149;51.196;6.204;2023-11-21T08:41:05;49.67;;;22.58;;
49131;SDS011;35149;51.196;6.204;2023-11-21T08:43:36;45.67;;;21.05;;
49131;SDS011;35149;51.196;6.204;2023-11-21T08:46:06;41.08;;;21.50;;
49131;SDS011;35149;51.196;6.204;2023-11-21T08:48:35;35.78;;;19.33;;
49131;SDS011;35149;51.196;6.204;2023-11-21T08:51:04;42.65;;;20.52;;
49131;SDS011;35149;51.196;6.204;2023-11-21T08:53:36;38.17;;;19.40;;
49131;SDS011;35149;51.196;6.204;2023-11-21T08:56:03;32.75;;;17.65;;
49131;SDS011;35149;51.196;6.204;2023-11-21T08:58:31;32.33;;;16.70;;
49131;SDS011;35149;51.196;6.204;2023-11-21T09:00:58;37.38;;;18.58;;
49131;SDS011;35149;51.196;6.204;2023-11-21T09:03:25;32.90;;;15.63;;
49131;SDS011;35149;51.196;6.204;2023-11-21T09:05:54;34.80;;;17.92;;
49131;SDS011;35149;51.196;6.204;2023-11-21T09:08:20;29.52;;;16.48;;
49131;SDS011;35149;51.196;6.204;2023-11-21T09:10:48;29.33;;;15.77;;
49131;SDS011;35149;51.196;6.204;2023-11-21T09:13:15;32.80;;;16.23;;
49131;SDS011;35149;51.196;6.204;2023-11-21T09:15:43;31.60;;;17.13;;
49131;SDS011;35149;51.196;6.204;2023-11-21T09:18:15;28.48;;;16.83;;
49131;SDS011;35149;51.196;6.204;2023-11-21T09:20:42;33.63;;;17.55;;
49131;SDS011;35149;51.196;6.204;2023-11-21T09:23:11;28.80;;;16.17;;
49131;SDS011;35149;51.196;6.204;2023-11-21T09:25:38;28.23;;;15.65;;
49131;SDS011;35149;51.196;6.204;2023-11-21T09:28:05;27.30;;;15.00;;
49131;SDS011;35149;51.196;6.204;2023-11-21T09:30:35;25.77;;;14.35;;
49131;SDS011;35149;51.196;6.204;2023-11-21T09:33:02;24.77;;;13.10;;
49131;SDS011;35149;51.196;6.204;2023-11-21T09:35:31;26.08;;;12.70;;
49131;SDS011;35149;51.196;6.204;2023-11-21T09:37:58;21.48;;;12.60;;
49131;SDS011;35149;51.196;6.204;2023-11-21T09:40:27;25.58;;;12.30;;
49131;SDS011;35149;51.196;6.204;2023-11-21T09:42:55;22.08;;;10.95;;
49131;SDS011;35149;51.196;6.204;2023-11-21T09:45:29;25.83;;;13.07;;
49131;SDS011;35149;51.196;6.204;2023-11-21T09:48:00;27.30;;;13.07;;
49131;SDS011;35149;51.196;6.204;2023-11-21T09:50:28;25.67;;;12.77;;
49131;SDS011;35149;51.196;6.204;2023-11-21T09:53:02;22.45;;;12.07;;
49131;SDS011;35149;51.196;6.204;2023-11-21T09:55:51;26.17;;;13.63;;
49131;SDS011;35149;51.196;6.204;2023-11-21T09:58:19;26.85;;;13.10;;
49131;SDS011;35149;51.196;6.204;2023-11-21T10:00:48;22.30;;;12.43;;
49131;SDS011;35149;51.196;6.204;2023-11-21T10:03:17;23.92;;;13.07;;
49131;SDS011;35149;51.196;6.204;2023-11-21T10:05:44;25.05;;;13.32;;
49131;SDS011;35149;51.196;6.204;2023-11-21T10:08:14;23.90;;;12.68;;
49131;SDS011;35149;51.196;6.204;2023-11-21T10:10:44;24.38;;;13.02;;
49131;SDS011;35149;51.196;6.204;2023-11-21T10:13:12;23.95;;;13.60;;
49131;SDS011;35149;51.196;6.204;2023-11-21T10:15:49;24.38;;;14.13;;
49131;SDS011;35149;51.196;6.204;2023-11-21T10:18:17;27.02;;;15.30;;
49131;SDS011;35149;51.196;6.204;2023-11-21T10:20:45;29.40;;;14.68;;
49131;SDS011;35149;51.196;6.204;2023-11-21T10:23:20;26.67;;;14.00;;
49131;SDS011;35149;51.196;6.204;2023-11-21T10:25:49;24.00;;;13.07;;
49131;SDS011;35149;51.196;6.204;2023-11-21T10:28:18;25.98;;;13.52;;
49131;SDS011;35149;51.196;6.204;2023-11-21T10:30:49;24.48;;;14.23;;
49131;SDS011;35149;51.196;6.204;2023-11-21T10:33:15;24.23;;;13.50;;
49131;SDS011;35149;51.196;6.204;2023-11-21T10:38:18;24.02;;;12.95;;
49131;SDS011;35149;51.196;6.204;2023-11-21T10:40:47;21.33;;;13.23;;
49131;SDS011;35149;51.196;6.204;2023-11-21T10:43:15;26.55;;;14.70;;
49131;SDS011;35149;51.196;6.204;2023-11-21T10:45:43;26.08;;;13.40;;
49131;SDS011;35149;51.196;6.204;2023-11-21T10:48:10;25.98;;;14.98;;
49131;SDS011;35149;51.196;6.204;2023-11-21T10:50:44;27.45;;;14.88;;
49131;SDS011;35149;51.196;6.204;2023-11-21T10:53:12;28.90;;;15.25;;
49131;SDS011;35149;51.196;6.204;2023-11-21T10:55:39;28.27;;;14.23;;
49131;SDS011;35149;51.196;6.204;2023-11-21T10:58:06;24.13;;;14.07;;
49131;SDS011;35149;51.196;6.204;2023-11-21T11:00:33;25.58;;;13.15;;
49131;SDS011;35149;51.196;6.204;2023-11-21T11:03:00;28.98;;;14.88;;
49131;SDS011;35149;51.196;6.204;2023-11-21T11:05:29;23.20;;;12.50;;
49131;SDS011;35149;51.196;6.204;2023-11-21T11:07:59;19.88;;;11.73;;
49131;SDS011;35149;51.196;6.204;2023-11-21T11:10:31;19.67;;;11.43;;
49131;SDS011;35149;51.196;6.204;2023-11-21T11:12:58;19.00;;;11.98;;
49131;SDS011;35149;51.196;6.204;2023-11-21T11:15:25;22.52;;;12.55;;
49131;SDS011;35149;51.196;6.204;2023-11-21T11:17:53;22.40;;;13.90;;
49131;SDS011;35149;51.196;6.204;2023-11-21T11:20:33;22.10;;;12.43;;
49131;SDS011;35149;51.196;6.204;2023-11-21T11:28:14;23.23;;;12.82;;
49131;SDS011;35149;51.196;6.204;2023-11-21T11:30:49;20.95;;;12.68;;
49131;SDS011;35149;51.196;6.204;2023-11-21T11:33:45;21.07;;;12.23;;
49131;SDS011;35149;51.196;6.204;2023-11-21T11:36:29;24.52;;;13.55;;
49131;SDS011;35149;51.196;6.204;2023-11-21T11:41:55;19.67;;;12.13;;
49131;SDS011;35149;51.196;6.204;2023-11-21T11:50:06;20.98;;;11.23;;
49131;SDS011;35149;51.196;6.204;2023-11-21T11:55:07;21.50;;;11.82;;
49131;SDS011;35149;51.196;6.204;2023-11-21T11:57:45;22.35;;;11.70;;
49131;SDS011;35149;51.196;6.204;2023-11-21T12:00:43;22.77;;;11.82;;
49131;SDS011;35149;51.196;6.204;2023-11-21T12:03:10;24.02;;;12.50;;
49131;SDS011;35149;51.196;6.204;2023-11-21T12:05:37;22.65;;;12.07;;
49131;SDS011;35149;51.196;6.204;2023-11-21T12:08:11;20.90;;;12.88;;
49131;SDS011;35149;51.196;6.204;2023-11-21T12:10:38;19.23;;;11.35;;
49131;SDS011;35149;51.196;6.204;2023-11-21T12:13:09;22.65;;;10.20;;
49131;SDS011;35149;51.196;6.204;2023-11-21T12:15:38;19.05;;;9.63;;
49131;SDS011;35149;51.196;6.204;2023-11-21T12:18:07;21.13;;;11.90;;
49131;SDS011;35149;51.196;6.204;2023-11-21T12:20:34;19.38;;;11.38;;
49131;SDS011;35149;51.196;6.204;2023-11-21T12:23:05;20.27;;;11.33;;
49131;SDS011;35149;51.196;6.204;2023-11-21T12:25:32;19.75;;;11.35;;
49131;SDS011;35149;51.196;6.204;2023-11-21T12:28:00;17.95;;;10.35;;
49131;SDS011;35149;51.196;6.204;2023-11-21T12:30:30;19.17;;;11.15;;
49131;SDS011;35149;51.196;6.204;2023-11-21T12:33:04;16.13;;;10.35;;
49131;SDS011;35149;51.196;6.204;2023-11-21T12:35:33;19.45;;;10.70;;
49131;SDS011;35149;51.196;6.204;2023-11-21T12:38:02;19.65;;;10.80;;
49131;SDS011;35149;51.196;6.204;2023-11-21T12:40:31;18.65;;;11.27;;
49131;SDS011;35149;51.196;6.204;2023-11-21T12:42:58;16.50;;;10.15;;
49131;SDS011;35149;51.196;6.204;2023-11-21T12:45:27;14.90;;;8.77;;
49131;SDS011;35149;51.196;6.204;2023-11-21T12:47:56;14.40;;;8.27;;
49131;SDS011;35149;51.196;6.204;2023-11-21T12:50:26;15.23;;;9.57;;
49131;SDS011;35149;51.196;6.204;2023-11-21T12:52:59;13.00;;;8.40;;
49131;SDS011;35149;51.196;6.204;2023-11-21T12:55:31;14.40;;;8.52;;
49131;SDS011;35149;51.196;6.204;2023-11-21T12:58:01;14.73;;;9.68;;
49131;SDS011;35149;51.196;6.204;2023-11-21T13:00:40;13.80;;;8.40;;
49131;SDS011;35149;51.196;6.204;2023-11-21T13:03:09;14.68;;;8.57;;
49131;SDS011;35149;51.196;6.204;2023-11-21T13:05:39;13.68;;;8.43;;
49131;SDS011;35149;51.196;6.204;2023-11-21T13:08:12;9.32;;;6.03;;
49131;SDS011;35149;51.196;6.204;2023-11-21T13:10:40;10.95;;;5.78;;
49131;SDS011;35149;51.196;6.204;2023-11-21T13:13:10;11.90;;;6.78;;
49131;SDS011;35149;51.196;6.204;2023-11-21T13:15:47;9.52;;;6.05;;
49131;SDS011;35149;51.196;6.204;2023-11-21T13:18:32;10.25;;;5.75;;
49131;SDS011;35149;51.196;6.204;2023-11-21T13:20:59;7.80;;;5.43;;
49131;SDS011;35149;51.196;6.204;2023-11-21T13:23:33;9.95;;;6.18;;
49131;SDS011;35149;51.196;6.204;2023-11-21T13:26:02;8.68;;;5.57;;
49131;SDS011;35149;51.196;6.204;2023-11-21T13:28:33;10.80;;;5.88;;
49131;SDS011;35149;51.196;6.204;2023-11-21T13:31:01;9.25;;;5.85;;
49131;SDS011;35149;51.196;6.204;2023-11-21T13:33:35;10.88;;;6.38;;
49131;SDS011;35149;51.196;6.204;2023-11-21T13:36:06;11.18;;;5.90;;
49131;SDS011;35149;51.196;6.204;2023-11-21T13:38:35;9.57;;;5.70;;
49131;SDS011;35149;51.196;6.204;2023-11-21T13:41:03;10.95;;;5.93;;
49131;SDS011;35149;51.196;6.204;2023-11-21T13:43:33;7.55;;;4.20;;
49131;SDS011;35149;51.196;6.204;2023-11-21T13:46:00;6.80;;;4.35;;
49131;SDS011;35149;51.196;6.204;2023-11-21T13:48:39;4.30;;;3.70;;
49131;SDS011;35149;51.196;6.204;2023-11-21T13:51:09;5.93;;;3.53;;
49131;SDS011;35149;51.196;6.204;2023-11-21T13:53:47;7.22;;;3.15;;
49131;SDS011;35149;51.196;6.204;2023-11-21T13:56:16;4.70;;;3.75;;
49131;SDS011;35149;51.196;6.204;2023-11-21T13:58:47;5.47;;;3.35;;
49131;SDS011;35149;51.196;6.204;2023-11-21T14:01:18;4.65;;;2.97;;
49131;SDS011;35149;51.196;6.204;2023-11-21T14:04:02;5.70;;;4.07;;
49131;SDS011;35149;51.196;6.204;2023-11-21T14:06:42;8.55;;;4.85;;
49131;SDS011;35149;51.196;6.204;2023-11-21T14:09:17;6.85;;;4.50;;
49131;SDS011;35149;51.196;6.204;2023-11-21T14:11:52;7.78;;;5.22;;
49131;SDS011;35149;51.196;6.204;2023-11-21T14:14:26;11.52;;;5.88;;
49131;SDS011;35149;51.196;6.204;2023-11-21T14:16:54;8.83;;;5.57;;
49131;SDS011;35149;51.196;6.204;2023-11-21T14:19:25;9.55;;;6.75;;
49131;SDS011;35149;51.196;6.204;2023-11-21T14:21:59;9.80;;;6.00;;
49131;SDS011;35149;51.196;6.204;2023-11-21T14:24:27;6.53;;;4.88;;
49131;SDS011;35149;51.196;6.204;2023-11-21T14:26:55;8.40;;;5.82;;
49131;SDS011;35149;51.196;6.204;2023-11-21T14:29:22;9.50;;;5.88;;
49131;SDS011;35149;51.196;6.204;2023-11-21T14:31:50;8.68;;;6.07;;
49131;SDS011;35149;51.196;6.204;2023-11-21T14:34:19;8.48;;;6.10;;
49131;SDS011;35149;51.196;6.204;2023-11-21T14:36:49;11.50;;;8.25;;
49131;SDS011;35149;51.196;6.204;2023-11-21T14:39:16;10.68;;;8.23;;
49131;SDS011;35149;51.196;6.204;2023-11-21T14:41:50;12.13;;;7.95;;
49131;SDS011;35149;51.196;6.204;2023-11-21T14:44:18;15.88;;;8.70;;
49131;SDS011;35149;51.196;6.204;2023-11-21T14:46:45;11.93;;;7.60;;
49131;SDS011;35149;51.196;6.204;2023-11-21T14:49:16;11.30;;;8.17;;
49131;SDS011;35149;51.196;6.204;2023-11-21T14:51:47;11.52;;;7.82;;